Time;durP1;ratioP1;P1;durP2;ratioP2;P2;SDS_P1;SDS_P2;PMS_P1;PMS_P2;Temp;Humidity;BMP_temperature;BMP_pressure;BME280_temperature;BME280_humidity;BME280_pressure;Samples;Min_cycle;Max_cycle;Signal;HPM_P1;HPM_P2
2021/10/11 00:01:53;;;;;;;29.55;22.33;;;14.00;91.20;;;;;;5012791;28;20030;-68
2021/10/11 00:04:18;;;;;;;30.95;23.13;;;14.00;91.20;;;;;;5014073;28;20149;-67
2021/10/11 00:06:44;;;;;;;28.25;22.33;;;14.00;91.10;;;;;;5014005;28;20057;-67
2021/10/11 00:09:09;;;;;;;27.15;22.27;;;14.00;91.10;;;;;;5013813;28;20420;-66
2021/10/11 00:11:35;;;;;;;29.98;23.63;;;14.00;90.90;;;;;;5014086;28;20037;-67
2021/10/11 00:14:01;;;;;;;29.77;23.38;;;14.00;90.80;;;;;;5013931;28;20032;-67
2021/10/11 00:16:26;;;;;;;29.20;23.92;;;14.00;90.70;;;;;;5013974;28;20032;-67
2021/10/11 00:18:52;;;;;;;30.30;24.27;;;14.00;90.80;;;;;;5013441;28;20041;-67
2021/10/11 00:21:18;;;;;;;31.30;24.52;;;14.00;90.80;;;;;;5013807;28;20029;-67
2021/10/11 00:23:44;;;;;;;30.92;24.63;;;14.00;90.80;;;;;;5013735;28;20030;-68
2021/10/11 00:26:10;;;;;;;31.00;23.52;;;14.00;91.00;;;;;;5012537;28;20022;-67
2021/10/11 00:28:36;;;;;;;32.45;24.60;;;14.00;90.90;;;;;;5012817;28;20025;-67
2021/10/11 00:31:01;;;;;;;31.92;24.25;;;14.00;91.00;;;;;;5013537;28;20026;-66
2021/10/11 00:33:27;;;;;;;31.25;24.38;;;14.00;91.00;;;;;;5013254;28;20022;-67
2021/10/11 00:35:52;;;;;;;30.30;24.23;;;14.00;91.00;;;;;;5013637;28;20030;-67
2021/10/11 00:38:18;;;;;;;29.40;24.75;;;13.90;91.00;;;;;;5011984;28;20029;-67
2021/10/11 00:40:43;;;;;;;30.15;24.38;;;14.00;91.00;;;;;;5013612;28;20022;-67
2021/10/11 00:43:09;;;;;;;28.17;23.33;;;14.00;91.00;;;;;;5011899;28;20076;-67
2021/10/11 00:45:35;;;;;;;32.03;24.33;;;14.00;91.10;;;;;;5012095;28;20018;-68
2021/10/11 00:54:44;;;;;;;32.92;25.25;;;14.00;91.10;;;;;;5021992;28;20067;-68
2021/10/11 00:57:10;;;;;;;32.50;25.55;;;14.00;91.20;;;;;;5031285;28;20033;-67
2021/10/11 00:59:35;;;;;;;31.63;24.83;;;14.00;91.10;;;;;;5032603;28;20444;-68
2021/10/11 01:02:02;;;;;;;32.92;25.25;;;14.00;91.20;;;;;;5031507;28;20108;-67
2021/10/11 01:04:28;;;;;;;32.28;25.50;;;13.90;91.30;;;;;;5032723;28;20024;-68
2021/10/11 01:06:53;;;;;;;33.05;25.27;;;14.00;91.40;;;;;;5032823;28;20017;-67
2021/10/11 01:09:19;;;;;;;32.50;25.90;;;14.00;91.50;;;;;;5032374;28;20367;-67
2021/10/11 01:11:49;;;;;;;33.78;25.58;;;14.00;91.40;;;;;;5032660;28;20030;-68
2021/10/11 01:14:15;;;;;;;34.85;26.70;;;14.00;91.50;;;;;;5032583;28;20048;-68
2021/10/11 01:16:41;;;;;;;31.45;25.13;;;14.00;91.60;;;;;;5032634;28;20480;-68
2021/10/11 01:19:06;;;;;;;33.58;26.13;;;14.00;91.60;;;;;;5032081;28;20023;-68
2021/10/11 01:21:32;;;;;;;36.42;27.52;;;14.00;91.40;;;;;;5032500;28;20029;-68
2021/10/11 01:23:58;;;;;;;33.25;26.23;;;14.00;91.20;;;;;;5032256;28;20079;-67
2021/10/11 01:26:33;;;;;;;36.33;27.27;;;14.00;91.20;;;;;;5032419;28;20481;-68
2021/10/11 01:28:59;;;;;;;32.50;26.25;;;14.00;91.10;;;;;;5032058;28;20061;-68
2021/10/11 01:31:24;;;;;;;34.28;26.48;;;14.00;91.10;;;;;;5032338;28;20056;-67
2021/10/11 01:33:50;;;;;;;31.27;25.33;;;13.90;91.00;;;;;;5031996;28;20468;-68
2021/10/11 01:36:15;;;;;;;35.78;25.95;;;13.90;91.00;;;;;;5032287;28;20117;-68
2021/10/11 01:38:41;;;;;;;36.13;27.10;;;13.90;90.90;;;;;;5031770;28;20072;-67
2021/10/11 01:41:06;;;;;;;32.63;26.15;;;14.00;90.90;;;;;;5030822;28;20067;-68
2021/10/11 01:43:31;;;;;;;34.42;27.23;;;13.90;90.90;;;;;;5032052;28;20447;-68
2021/10/11 01:45:57;;;;;;;34.13;25.77;;;13.90;90.90;;;;;;5030759;28;20018;-67
2021/10/11 01:48:23;;;;;;;36.28;27.55;;;13.90;91.10;;;;;;5031790;28;20028;-66
2021/10/11 01:50:48;;;;;;;35.22;27.05;;;13.90;91.10;;;;;;5032040;28;20036;-68
2021/10/11 01:53:14;;;;;;;35.63;27.33;;;14.00;91.10;;;;;;5031820;28;20029;-68
2021/10/11 01:55:39;;;;;;;36.33;26.85;;;14.00;91.00;;;;;;5031918;28;20029;-65
2021/10/11 01:58:05;;;;;;;34.67;27.27;;;13.90;91.00;;;;;;5031933;28;20102;-67
2021/10/11 02:00:30;;;;;;;36.80;27.02;;;13.90;91.00;;;;;;5031503;28;20128;-67
2021/10/11 02:02:56;;;;;;;33.13;26.40;;;13.90;91.00;;;;;;5031728;28;20504;-67
2021/10/11 02:05:21;;;;;;;36.15;27.33;;;14.00;91.10;;;;;;5031678;28;20033;-67
2021/10/11 02:07:47;;;;;;;33.10;25.67;;;13.90;91.20;;;;;;5031636;28;20036;-67
2021/10/11 02:10:13;;;;;;;37.42;28.40;;;13.90;91.10;;;;;;5031424;28;20097;-67
2021/10/11 02:12:39;;;;;;;34.00;26.30;;;13.90;91.10;;;;;;5031653;28;20118;-67
2021/10/11 02:15:06;;;;;;;35.25;28.45;;;13.90;91.00;;;;;;5030490;28;20183;-67
2021/10/11 02:17:31;;;;;;;35.92;28.70;;;13.90;91.10;;;;;;5030528;28;20416;-68
2021/10/11 02:19:57;;;;;;;35.30;28.00;;;14.00;91.00;;;;;;5031282;28;20029;-68
2021/10/11 02:22:23;;;;;;;35.28;26.63;;;13.90;91.00;;;;;;5031382;28;20025;-67
2021/10/11 02:24:48;;;;;;;34.83;27.23;;;13.90;91.10;;;;;;5031429;28;20500;-67
2021/10/11 02:27:14;;;;;;;34.25;26.35;;;13.90;91.10;;;;;;5031554;28;20022;-67
2021/10/11 02:29:39;;;;;;;35.65;28.20;;;13.90;91.10;;;;;;5031128;28;20021;-67
2021/10/11 02:32:05;;;;;;;35.42;27.50;;;13.90;91.20;;;;;;5030275;28;20056;-67
2021/10/11 02:34:31;;;;;;;35.15;27.40;;;13.90;91.20;;;;;;5031289;28;20108;-66
2021/10/11 02:36:56;;;;;;;34.70;27.10;;;13.90;91.20;;;;;;5030102;28;20071;-67
2021/10/11 02:39:22;;;;;;;34.30;26.60;;;13.90;91.30;;;;;;5085252;22;20104;-70
2021/10/11 02:41:47;;;;;;;33.40;27.15;;;13.90;91.40;;;;;;5031254;28;20485;-70
2021/10/11 02:44:13;;;;;;;35.30;27.02;;;13.90;91.30;;;;;;5031319;28;20038;-71
2021/10/11 02:46:38;;;;;;;33.88;26.90;;;13.90;91.30;;;;;;5030290;28;20025;-71
2021/10/11 02:49:04;;;;;;;33.95;26.67;;;13.90;91.40;;;;;;5031044;28;20025;-70
2021/10/11 02:51:29;;;;;;;34.17;25.95;;;13.90;91.50;;;;;;5030241;28;20030;-70
2021/10/11 02:53:55;;;;;;;33.83;26.98;;;13.90;91.50;;;;;;5029382;28;20508;-71
2021/10/11 02:56:21;;;;;;;34.50;26.88;;;13.90;91.50;;;;;;5034804;28;20026;-70
2021/10/11 02:58:46;;;;;;;33.80;27.17;;;13.90;91.60;;;;;;5034746;28;20036;-70
2021/10/11 03:01:12;;;;;;;33.13;25.70;;;13.90;91.70;;;;;;5035102;28;20022;-70
2021/10/11 03:03:38;;;;;;;32.25;25.55;;;13.90;91.80;;;;;;5035398;28;20443;-71
2021/10/11 03:06:05;;;;;;;34.40;26.58;;;13.90;91.70;;;;;;5035166;28;20432;-70
2021/10/11 03:08:34;;;;;;;35.47;26.80;;;13.90;91.70;;;;;;5034797;28;20473;-71
2021/10/11 03:11:00;;;;;;;32.15;25.08;;;13.90;91.80;;;;;;5035423;28;20025;-70
2021/10/11 03:13:26;;;;;;;31.75;25.67;;;13.90;91.90;;;;;;5035008;28;20033;-70
2021/10/11 03:15:51;;;;;;;31.65;25.48;;;13.90;92.00;;;;;;5034968;28;20089;-70
2021/10/11 03:18:17;;;;;;;31.02;25.50;;;13.90;92.00;;;;;;5034702;28;20041;-70
2021/10/11 03:20:42;;;;;;;31.67;25.25;;;13.90;92.20;;;;;;5034752;28;20082;-71
2021/10/11 03:23:08;;;;;;;34.72;24.25;;;13.90;92.10;;;;;;5034805;28;20074;-71
2021/10/11 03:25:33;;;;;;;32.22;25.00;;;13.90;92.20;;;;;;5034675;28;20018;-70
2021/10/11 03:27:59;;;;;;;34.03;24.70;;;13.90;92.20;;;;;;5033345;28;20014;-71
2021/10/11 03:30:24;;;;;;;32.22;25.63;;;13.90;92.40;;;;;;5034402;28;20492;-71
2021/10/11 03:32:50;;;;;;;33.42;24.77;;;13.90;92.40;;;;;;5033468;28;20033;-70
2021/10/11 03:35:16;;;;;;;31.00;24.60;;;13.90;92.30;;;;;;5034651;28;20030;-70
2021/10/11 03:37:41;;;;;;;30.75;23.80;;;13.90;92.30;;;;;;5034511;28;20408;-70
2021/10/11 03:40:08;;;;;;;30.38;24.75;;;13.90;92.60;;;;;;5034142;28;20041;-71
2021/10/11 03:42:34;;;;;;;32.97;25.10;;;13.90;92.40;;;;;;5034454;28;20033;-70
2021/10/11 03:44:59;;;;;;;31.25;24.05;;;13.90;92.70;;;;;;5034478;28;20075;-71
2021/10/11 03:47:25;;;;;;;28.35;22.80;;;13.90;92.50;;;;;;5034461;28;20026;-71
2021/10/11 03:49:51;;;;;;;30.55;24.08;;;13.90;92.50;;;;;;5034056;28;20021;-70
2021/10/11 03:52:16;;;;;;;29.85;23.00;;;13.90;92.40;;;;;;5024815;28;20041;-71
2021/10/11 03:54:42;;;;;;;30.08;23.50;;;13.90;92.50;;;;;;5014334;28;20030;-71
2021/10/11 03:57:07;;;;;;;29.75;23.40;;;13.90;92.50;;;;;;5014339;28;20056;-70
2021/10/11 03:59:33;;;;;;;31.02;23.73;;;13.90;92.70;;;;;;5014015;28;20104;-70
2021/10/11 04:01:59;;;;;;;30.08;23.13;;;13.90;92.80;;;;;;5014196;28;20045;-71
2021/10/11 04:04:24;;;;;;;28.35;23.10;;;13.90;92.60;;;;;;5011907;28;20026;-72
2021/10/11 04:06:52;;;;;;;29.40;22.83;;;14.00;92.80;;;;;;5012958;28;20499;-70
2021/10/11 04:09:17;;;;;;;28.15;21.92;;;13.90;92.70;;;;;;5013875;28;20415;-71
2021/10/11 04:11:43;;;;;;;27.45;21.75;;;13.90;92.80;;;;;;5014031;28;20033;-70
2021/10/11 04:14:09;;;;;;;28.73;22.65;;;13.90;93.00;;;;;;5012763;28;20527;-71
2021/10/11 04:16:34;;;;;;;29.10;21.95;;;13.90;93.20;;;;;;5014221;28;20030;-70
2021/10/11 04:19:00;;;;;;;27.60;21.33;;;13.90;92.90;;;;;;5013590;28;20026;-70
2021/10/11 04:21:26;;;;;;;30.95;22.58;;;13.90;92.90;;;;;;5013946;28;20026;-71
2021/10/11 04:23:51;;;;;;;27.13;21.70;;;13.90;93.00;;;;;;5012540;28;20021;-70
2021/10/11 04:26:17;;;;;;;29.52;22.55;;;13.90;93.00;;;;;;5012802;28;20022;-72
2021/10/11 04:28:42;;;;;;;29.67;21.83;;;13.90;93.00;;;;;;5012171;28;20587;-71
2021/10/11 04:31:08;;;;;;;28.23;21.73;;;13.90;93.10;;;;;;5013765;28;20036;-71
2021/10/11 04:33:34;;;;;;;28.90;21.83;;;13.90;93.20;;;;;;5013665;28;20022;-72
2021/10/11 04:35:59;;;;;;;27.38;20.58;;;14.00;93.20;;;;;;5014209;28;20469;-72
2021/10/11 04:38:25;;;;;;;27.55;21.40;;;13.90;92.90;;;;;;5024668;28;20072;-70
2021/10/11 04:40:51;;;;;;;25.67;20.33;;;13.90;93.00;;;;;;5033107;28;20025;-70
2021/10/11 04:43:16;;;;;;;28.98;21.63;;;14.00;92.90;;;;;;5033288;28;20587;-70
2021/10/11 04:45:42;;;;;;;26.83;21.17;;;14.00;93.50;;;;;;5033214;28;20022;-70
2021/10/11 04:48:09;;;;;;;26.75;20.05;;;13.90;93.30;;;;;;5033513;28;20048;-71
2021/10/11 04:50:35;;;;;;;27.55;20.88;;;14.00;93.20;;;;;;5033829;28;20045;-71
2021/10/11 04:53:01;;;;;;;26.65;20.27;;;14.00;92.80;;;;;;5032060;28;20068;-70
2021/10/11 04:55:28;;;;;;;25.52;21.00;;;13.90;93.10;;;;;;5033227;28;20021;-71
2021/10/11 04:57:55;;;;;;;24.83;19.70;;;13.90;93.20;;;;;;5033278;28;20017;-70
2021/10/11 05:00:21;;;;;;;27.90;20.38;;;14.00;93.00;;;;;;5031226;28;20029;-71
2021/10/11 05:02:46;;;;;;;25.60;19.48;;;13.90;93.00;;;;;;5023140;28;20030;-71
2021/10/11 05:05:12;;;;;;;27.25;20.17;;;13.90;93.10;;;;;;5031598;28;20409;-70
2021/10/11 05:07:38;;;;;;;26.92;19.67;;;13.90;93.40;;;;;;5032794;28;20021;-71
2021/10/11 05:10:04;;;;;;;23.58;18.40;;;13.90;93.10;;;;;;5032578;28;20083;-71
2021/10/11 05:12:30;;;;;;;25.75;19.13;;;13.90;93.00;;;;;;5032719;28;20101;-70
2021/10/11 05:14:55;;;;;;;23.92;18.60;;;13.90;93.30;;;;;;5032158;28;20420;-71
2021/10/11 05:17:21;;;;;;;26.80;20.50;;;13.90;93.10;;;;;;5031444;28;20033;-71
2021/10/11 05:19:46;;;;;;;25.80;18.92;;;13.90;93.30;;;;;;5029832;28;20500;-71
2021/10/11 05:22:12;;;;;;;23.60;18.23;;;13.90;93.20;;;;;;5032221;28;20029;-72
2021/10/11 05:24:37;;;;;;;27.75;19.40;;;13.90;93.30;;;;;;5032139;28;20108;-69
2021/10/11 05:27:03;;;;;;;26.48;18.50;;;13.90;93.10;;;;;;5032056;28;20039;-71
2021/10/11 05:29:28;;;;;;;26.33;18.70;;;13.90;93.20;;;;;;5031975;28;20051;-71
2021/10/11 05:31:55;;;;;;;24.92;18.88;;;13.90;93.30;;;;;;5032588;28;20037;-71
2021/10/11 05:34:20;;;;;;;24.20;18.50;;;13.90;93.20;;;;;;5032370;28;20032;-71
2021/10/11 05:36:46;;;;;;;24.75;18.83;;;13.90;93.20;;;;;;5032424;28;20025;-70
2021/10/11 05:39:12;;;;;;;27.65;18.10;;;13.90;93.30;;;;;;5030425;28;20041;-70
2021/10/11 05:41:37;;;;;;;25.35;18.58;;;13.90;93.10;;;;;;5032358;28;20026;-71
2021/10/11 05:44:04;;;;;;;24.23;17.90;;;13.90;93.30;;;;;;5032152;28;20025;-72
2021/10/11 05:46:29;;;;;;;23.05;16.98;;;13.90;93.30;;;;;;5032451;28;20381;-70
2021/10/11 05:48:55;;;;;;;26.15;18.17;;;13.90;93.30;;;;;;5032020;28;20075;-70
2021/10/11 05:51:21;;;;;;;31.27;17.40;;;13.90;93.30;;;;;;5032290;28;20021;-69
2021/10/11 05:53:46;;;;;;;28.63;17.75;;;13.90;92.90;;;;;;5030951;28;20075;-71
2021/10/11 05:56:12;;;;;;;28.88;16.80;;;13.90;93.30;;;;;;5031110;28;20022;-71
2021/10/11 05:58:38;;;;;;;25.65;16.33;;;13.90;93.10;;;;;;5031859;28;20507;-70
2021/10/11 06:01:04;;;;;;;31.70;15.48;;;13.90;93.00;;;;;;5030752;28;20026;-70
2021/10/11 06:03:30;;;;;;;24.63;14.55;;;13.80;92.80;;;;;;5032276;28;20395;-71
2021/10/11 06:05:55;;;;;;;25.05;13.60;;;13.70;93.20;;;;;;5030763;28;20108;-70
2021/10/11 06:08:21;;;;;;;23.20;14.10;;;13.50;93.60;;;;;;5030647;28;20017;-72
2021/10/11 06:10:46;;;;;;;26.63;14.60;;;13.40;94.20;;;;;;5030554;28;20021;-71
2021/10/11 06:13:12;;;;;;;27.75;14.85;;;13.50;94.40;;;;;;5031420;28;20546;-72
2021/10/11 06:15:38;;;;;;;25.90;15.00;;;13.60;94.30;;;;;;5030605;28;20025;-71
2021/10/11 06:18:03;;;;;;;23.27;15.35;;;13.70;94.10;;;;;;5031691;28;20029;-71
2021/10/11 06:20:29;;;;;;;24.83;15.30;;;13.70;93.80;;;;;;5031405;28;20029;-71
2021/10/11 06:22:55;;;;;;;22.17;14.25;;;13.80;93.70;;;;;;5031311;28;20108;-71
2021/10/11 06:25:21;;;;;;;24.33;14.75;;;13.80;93.60;;;;;;5030349;28;20034;-71
2021/10/11 06:27:47;;;;;;;22.38;13.63;;;13.80;93.40;;;;;;5031113;28;20068;-71
2021/10/11 06:30:12;;;;;;;22.58;13.25;;;13.80;93.30;;;;;;5029977;28;20045;-70
2021/10/11 06:32:38;;;;;;;25.10;13.77;;;13.80;93.30;;;;;;5031441;28;20025;-71
2021/10/11 06:35:04;;;;;;;20.80;13.50;;;13.90;93.40;;;;;;5030204;28;20139;-71
2021/10/11 06:37:29;;;;;;;25.73;14.00;;;13.80;93.30;;;;;;5031381;28;20029;-71
2021/10/11 06:39:55;;;;;;;20.75;13.18;;;13.90;93.20;;;;;;5029887;28;20032;-71
2021/10/11 06:42:21;;;;;;;19.85;12.52;;;13.90;93.30;;;;;;5030088;28;20029;-70
2021/10/11 06:44:47;;;;;;;21.42;12.48;;;13.90;93.20;;;;;;5031467;28;20030;-71
2021/10/11 06:47:12;;;;;;;22.15;13.02;;;13.90;93.20;;;;;;5031474;28;20424;-71
2021/10/11 06:49:38;;;;;;;18.42;12.32;;;13.90;93.20;;;;;;5030986;28;20032;-71
2021/10/11 06:52:03;;;;;;;19.08;12.10;;;13.90;93.20;;;;;;5030012;28;20485;-71
2021/10/11 06:54:30;;;;;;;16.67;11.65;;;13.90;93.10;;;;;;5031273;28;20053;-71
2021/10/11 06:56:56;;;;;;;18.77;11.52;;;13.90;93.10;;;;;;5031474;28;20033;-71
2021/10/11 06:59:21;;;;;;;18.42;11.65;;;13.90;93.00;;;;;;5030916;28;20025;-71
2021/10/11 07:01:47;;;;;;;20.13;11.93;;;13.90;93.10;;;;;;5033547;28;20057;-72
2021/10/11 07:04:13;;;;;;;16.42;11.07;;;13.90;93.10;;;;;;5047296;28;20022;-71
2021/10/11 07:06:41;;;;;;;18.48;10.85;;;13.90;93.20;;;;;;5048053;28;20028;-71
2021/10/11 07:09:06;;;;;;;15.52;10.15;;;13.90;93.10;;;;;;5045759;28;20475;-71
2021/10/11 07:11:32;;;;;;;17.08;10.57;;;13.90;93.20;;;;;;5043357;28;20021;-70
2021/10/11 07:13:57;;;;;;;17.38;10.55;;;13.90;93.30;;;;;;5031148;28;20397;-71
2021/10/11 07:16:23;;;;;;;16.67;10.27;;;13.90;93.10;;;;;;5031056;28;20030;-70
2021/10/11 07:18:48;;;;;;;15.00;9.93;;;13.90;93.00;;;;;;5030827;28;20067;-71
2021/10/11 07:21:14;;;;;;;13.07;8.43;;;13.90;93.10;;;;;;5029544;28;20448;-71
2021/10/11 07:23:39;;;;;;;15.75;9.85;;;13.90;93.10;;;;;;5031329;28;20025;-71
2021/10/11 07:26:07;;;;;;;16.48;9.70;;;13.90;93.30;;;;;;5031004;28;20397;-71
2021/10/11 07:28:35;;;;;;;16.88;9.05;;;13.90;93.20;;;;;;5030761;28;20455;-71
2021/10/11 07:31:00;;;;;;;18.58;8.95;;;13.90;93.20;;;;;;5030953;28;20018;-71
2021/10/11 07:33:26;;;;;;;15.90;8.77;;;13.90;93.10;;;;;;5031021;28;20076;-71
2021/10/11 07:35:52;;;;;;;16.00;8.75;;;13.90;93.30;;;;;;5030878;28;20030;-70
2021/10/11 07:38:18;;;;;;;13.52;8.52;;;13.90;93.20;;;;;;5031471;28;20056;-70
2021/10/11 07:40:44;;;;;;;14.35;8.75;;;13.90;93.20;;;;;;5034582;28;20017;-70
2021/10/11 07:43:11;;;;;;;15.98;8.48;;;13.90;93.00;;;;;;5034297;28;20034;-71
2021/10/11 07:45:36;;;;;;;14.38;8.30;;;13.90;93.00;;;;;;5034470;28;20018;-71
2021/10/11 07:48:02;;;;;;;13.63;7.35;;;13.90;93.00;;;;;;5034183;28;20443;-71
2021/10/11 07:50:29;;;;;;;11.77;7.10;;;13.90;93.10;;;;;;5034316;28;20034;-70
2021/10/11 07:52:54;;;;;;;13.57;6.97;;;13.90;93.00;;;;;;5034274;28;20026;-70
2021/10/11 07:55:20;;;;;;;11.85;7.47;;;13.90;92.90;;;;;;5034364;28;20036;-71
2021/10/11 07:57:46;;;;;;;13.88;7.72;;;14.00;93.00;;;;;;5034189;28;20607;-71
2021/10/11 08:00:14;;;;;;;11.95;6.70;;;13.90;93.10;;;;;;5033924;28;20034;-70
2021/10/11 08:02:40;;;;;;;13.73;7.00;;;14.00;93.20;;;;;;5033778;28;20115;-71
2021/10/11 08:05:07;;;;;;;13.63;7.10;;;14.00;93.00;;;;;;5032784;28;20453;-71
2021/10/11 08:07:32;;;;;;;12.77;6.07;;;14.00;93.00;;;;;;5034054;28;20018;-71
2021/10/11 08:09:58;;;;;;;13.10;6.53;;;14.00;92.90;;;;;;5033675;28;20036;-72
2021/10/11 08:12:23;;;;;;;14.00;6.72;;;14.00;92.90;;;;;;5034044;28;20029;-71
2021/10/11 08:14:49;;;;;;;11.52;6.30;;;14.00;92.90;;;;;;5032559;28;20025;-71
2021/10/11 08:17:15;;;;;;;10.43;5.68;;;14.00;92.90;;;;;;5032433;28;20025;-71
2021/10/11 08:19:40;;;;;;;10.93;5.90;;;14.00;92.80;;;;;;5033435;28;20091;-72
2021/10/11 08:22:06;;;;;;;11.75;5.72;;;14.00;92.80;;;;;;5033717;28;20026;-71
2021/10/11 08:24:32;;;;;;;14.43;7.13;;;14.00;92.80;;;;;;5033605;28;20079;-71
2021/10/11 08:26:57;;;;;;;11.65;5.80;;;14.00;93.10;;;;;;5033694;28;20053;-70
2021/10/11 08:29:23;;;;;;;11.55;5.10;;;14.00;93.00;;;;;;5033192;28;20496;-71
2021/10/11 08:31:48;;;;;;;11.77;5.13;;;14.00;92.90;;;;;;5033523;28;20547;-71
2021/10/11 08:34:14;;;;;;;11.07;5.03;;;14.00;92.90;;;;;;5033718;28;20029;-71
2021/10/11 08:36:39;;;;;;;10.15;5.28;;;14.00;92.90;;;;;;5032162;28;20051;-72
2021/10/11 08:41:47;;;;;;;9.57;5.35;;;14.00;93.00;;;;;;5041700;22;20449;-67
2021/10/11 08:44:12;;;;;;;14.23;5.28;;;14.00;93.00;;;;;;5033374;28;20056;-67
2021/10/11 08:46:38;;;;;;;10.70;5.03;;;14.00;92.70;;;;;;5033092;28;20124;-68
2021/10/11 08:49:03;;;;;;;12.15;4.85;;;14.00;93.10;;;;;;5032752;28;20030;-67
2021/10/11 08:51:29;;;;;;;10.95;4.63;;;14.00;92.80;;;;;;5012724;28;20050;-67
2021/10/11 08:53:54;;;;;;;12.13;5.05;;;13.90;92.60;;;;;;5013125;28;20127;-67
2021/10/11 08:56:20;;;;;;;11.88;5.40;;;14.00;92.70;;;;;;5011779;28;20026;-67
2021/10/11 08:58:50;;;;;;;12.25;4.95;;;14.00;92.70;;;;;;5011906;28;20029;-67
2021/10/11 09:01:19;;;;;;;10.45;4.28;;;14.00;92.70;;;;;;5013015;28;20028;-68
2021/10/11 09:03:45;;;;;;;10.35;4.13;;;14.00;92.90;;;;;;5012889;28;20034;-67
2021/10/11 09:06:11;;;;;;;9.02;4.18;;;14.00;93.20;;;;;;5012931;28;20065;-67
2021/10/11 09:08:39;;;;;;;9.95;4.18;;;14.00;92.90;;;;;;5012424;28;20022;-67
2021/10/11 09:11:06;;;;;;;8.35;4.05;;;13.90;92.90;;;;;;5012803;28;20050;-67
2021/10/11 09:13:38;;;;;;;8.13;3.42;;;14.00;92.90;;;;;;5012775;28;20032;-67
2021/10/11 09:16:13;;;;;;;9.15;3.88;;;14.00;92.80;;;;;;5012904;28;20412;-67
2021/10/11 09:18:42;;;;;;;9.02;3.40;;;14.00;92.70;;;;;;5012847;28;20109;-67
2021/10/11 09:21:09;;;;;;;11.18;3.72;;;14.00;92.70;;;;;;5012452;28;20060;-67
2021/10/11 09:23:34;;;;;;;8.60;3.63;;;14.00;92.70;;;;;;5012547;28;20029;-67
2021/10/11 09:26:12;;;;;;;9.95;3.75;;;14.00;93.00;;;;;;5011502;28;20080;-67
2021/10/11 09:28:48;;;;;;;8.10;3.38;;;14.00;92.70;;;;;;5012317;28;20053;-68
2021/10/11 09:31:13;;;;;;;10.05;3.78;;;14.00;92.60;;;;;;5012584;28;20370;-66
2021/10/11 09:33:39;;;;;;;9.65;3.58;;;14.00;92.70;;;;;;5012253;28;20033;-67
2021/10/11 09:36:04;;;;;;;9.55;4.05;;;14.00;92.70;;;;;;5012509;28;20105;-68
2021/10/11 09:38:31;;;;;;;9.05;3.95;;;14.00;92.60;;;;;;5012174;28;20030;-67
2021/10/11 09:40:59;;;;;;;9.73;3.83;;;14.00;92.70;;;;;;5012069;28;20046;-66
2021/10/11 09:43:30;;;;;;;8.68;3.85;;;14.00;92.60;;;;;;5012666;28;20482;-67
2021/10/11 09:46:08;;;;;;;10.48;3.80;;;14.00;92.80;;;;;;5011116;28;20417;-65
2021/10/11 09:48:33;;;;;;;8.50;3.45;;;14.00;93.10;;;;;;5012000;28;20030;-65
2021/10/11 09:51:00;;;;;;;8.85;3.65;;;14.00;93.00;;;;;;5012165;28;20087;-67
2021/10/11 09:53:28;;;;;;;6.88;3.13;;;14.00;92.70;;;;;;5010981;28;20477;-66
2021/10/11 09:55:54;;;;;;;8.98;3.78;;;14.00;92.80;;;;;;5012074;28;20112;-67
2021/10/11 09:58:19;;;;;;;8.85;3.50;;;14.00;92.90;;;;;;5011933;28;20512;-67
2021/10/11 10:00:45;;;;;;;9.77;3.45;;;14.00;93.00;;;;;;5011726;28;20030;-66
2021/10/11 10:03:12;;;;;;;7.68;3.70;;;14.00;92.90;;;;;;5009721;28;20030;-66
2021/10/11 10:05:45;;;;;;;10.02;3.33;;;14.00;92.70;;;;;;5011910;28;20385;-67
2021/10/11 10:08:16;;;;;;;7.72;3.42;;;14.00;92.50;;;;;;5012351;28;20481;-65
2021/10/11 10:10:48;;;;;;;7.53;3.40;;;14.10;92.50;;;;;;5011652;28;20036;-66
2021/10/11 10:13:18;;;;;;;8.90;3.05;;;14.10;93.00;;;;;;5011850;28;20026;-67
2021/10/11 10:15:45;;;;;;;8.07;3.47;;;14.00;92.70;;;;;;5010739;28;20033;-67
2021/10/11 10:18:12;;;;;;;9.52;3.25;;;14.10;93.30;;;;;;5011793;28;20053;-67
2021/10/11 10:20:51;;;;;;;9.90;3.72;;;14.10;93.00;;;;;;5011574;28;20456;-66
2021/10/11 10:23:23;;;;;;;7.00;2.97;;;14.00;92.80;;;;;;5011864;28;20109;-67
2021/10/11 10:25:49;;;;;;;7.97;3.33;;;14.10;93.10;;;;;;5010255;28;20033;-67
2021/10/11 10:28:15;;;;;;;9.95;3.63;;;14.10;93.20;;;;;;5011452;28;20033;-66
2021/10/11 10:30:41;;;;;;;8.18;3.63;;;14.10;93.00;;;;;;5011660;28;20485;-67
2021/10/11 10:33:09;;;;;;;7.88;3.00;;;14.10;93.20;;;;;;5011623;28;20030;-66
2021/10/11 10:35:45;;;;;;;7.45;2.70;;;14.00;92.90;;;;;;5011785;28;20038;-66
2021/10/11 10:38:18;;;;;;;10.30;3.33;;;14.10;93.20;;;;;;5011357;28;20033;-69
2021/10/11 10:40:44;;;;;;;7.38;3.08;;;14.10;93.00;;;;;;5011481;28;20048;-67
2021/10/11 10:43:16;;;;;;;9.00;2.90;;;14.10;93.10;;;;;;5010167;28;20034;-68
2021/10/11 10:45:43;;;;;;;7.82;3.03;;;14.10;93.20;;;;;;5011714;28;20509;-66
2021/10/11 10:48:24;;;;;;;9.82;3.05;;;14.10;93.10;;;;;;5011456;28;20030;-67
2021/10/11 10:50:51;;;;;;;8.68;2.80;;;14.00;92.70;;;;;;5011386;28;20025;-66
2021/10/11 10:53:17;;;;;;;8.48;2.90;;;14.00;92.60;;;;;;5010393;28;20056;-67
2021/10/11 10:55:43;;;;;;;9.50;3.20;;;14.10;93.60;;;;;;5010333;28;20026;-66
2021/10/11 10:58:12;;;;;;;7.15;2.80;;;14.10;93.20;;;;;;5011765;28;20068;-66
2021/10/11 11:00:40;;;;;;;8.10;2.80;;;14.00;93.10;;;;;;5009990;28;20375;-66
2021/10/11 11:03:13;;;;;;;8.10;2.70;;;14.10;93.30;;;;;;5011236;28;20034;-67
2021/10/11 11:05:41;;;;;;;6.97;2.72;;;14.10;93.10;;;;;;5011513;28;20447;-68
2021/10/11 11:08:08;;;;;;;10.68;2.80;;;14.10;92.90;;;;;;5011329;28;20014;-67
2021/10/11 11:10:37;;;;;;;8.00;3.00;;;14.10;92.80;;;;;;5010921;28;20026;-67
2021/10/11 11:13:14;;;;;;;7.50;2.60;;;14.10;93.40;;;;;;5012296;28;20029;-67
2021/10/11 11:15:45;;;;;;;7.07;2.80;;;14.10;93.00;;;;;;5015061;28;20022;-67
2021/10/11 11:18:15;;;;;;;7.25;2.53;;;14.10;93.10;;;;;;5014967;28;20026;-68
2021/10/11 11:20:42;;;;;;;8.52;2.97;;;14.10;93.10;;;;;;5015279;28;20076;-67
2021/10/11 11:23:16;;;;;;;8.43;2.90;;;14.10;93.20;;;;;;5015257;28;20030;-67
2021/10/11 11:25:45;;;;;;;6.80;2.55;;;14.10;93.00;;;;;;5013624;28;20528;-68
2021/10/11 11:28:13;;;;;;;9.40;2.75;;;14.10;93.30;;;;;;5014663;28;20054;-67
2021/10/11 11:30:40;;;;;;;8.02;2.40;;;14.10;92.80;;;;;;5013125;28;20113;-67
2021/10/11 11:33:10;;;;;;;7.45;2.15;;;14.10;92.80;;;;;;5014781;28;20029;-66
2021/10/11 11:35:41;;;;;;;7.65;2.72;;;14.10;92.80;;;;;;5014706;28;20053;-68
2021/10/11 11:38:10;;;;;;;7.20;2.72;;;14.10;92.80;;;;;;5014870;28;20435;-66
2021/10/11 11:40:39;;;;;;;6.43;2.38;;;14.10;92.90;;;;;;5014215;28;20408;-67
2021/10/11 11:43:06;;;;;;;8.73;2.25;;;14.10;93.20;;;;;;5014422;28;20025;-68
2021/10/11 11:45:40;;;;;;;7.70;2.53;;;14.10;92.80;;;;;;5014567;28;20022;-67
2021/10/11 11:48:20;;;;;;;5.40;2.00;;;14.10;92.90;;;;;;5013292;28;20026;-67
2021/10/11 11:50:50;;;;;;;9.05;2.35;;;14.10;93.10;;;;;;5014302;28;20029;-67
2021/10/11 11:53:18;;;;;;;7.90;2.22;;;14.10;93.00;;;;;;5014210;28;20030;-67
2021/10/11 11:55:58;;;;;;;7.70;2.25;;;14.10;93.10;;;;;;5014324;28;20026;-68
2021/10/11 11:58:25;;;;;;;8.60;2.05;;;14.10;92.90;;;;;;5013945;28;20029;-67
2021/10/11 12:00:55;;;;;;;6.68;1.85;;;14.20;92.70;;;;;;5014039;28;20061;-67
2021/10/11 12:03:23;;;;;;;6.35;1.98;;;14.10;92.80;;;;;;5014714;28;20033;-68
2021/10/11 12:05:55;;;;;;;9.18;2.30;;;14.10;92.80;;;;;;5012693;28;20018;-67
2021/10/11 12:08:21;;;;;;;9.18;2.20;;;14.10;92.80;;;;;;5012641;28;20052;-67
2021/10/11 12:11:04;;;;;;;7.30;2.20;;;14.20;92.80;;;;;;5012775;28;20022;-67
2021/10/11 12:13:33;;;;;;;6.22;1.83;;;14.10;92.90;;;;;;5014034;28;20105;-67
2021/10/11 12:16:04;;;;;;;7.80;1.92;;;14.10;92.90;;;;;;5013956;28;20022;-67
2021/10/11 12:18:40;;;;;;;;;;;14.10;92.80;;;;;;5013950;28;20490;-69
2021/10/11 12:21:06;;;;;;;8.57;1.88;;;14.10;92.70;;;;;;5013880;28;19905;-66
2021/10/11 12:23:38;;;;;;;7.15;1.88;;;14.20;92.90;;;;;;5013740;28;20474;-67
2021/10/11 12:26:04;;;;;;;7.38;1.80;;;14.20;92.50;;;;;;5012898;28;20057;-67
2021/10/11 12:28:29;;;;;;;5.65;1.67;;;14.20;92.70;;;;;;5013405;28;20030;-66
2021/10/11 12:31:04;;;;;;;7.95;1.98;;;14.20;92.60;;;;;;5013328;28;20436;-67
2021/10/11 12:33:38;;;;;;;5.75;1.85;;;14.20;92.90;;;;;;5012270;28;20033;-67
2021/10/11 12:36:04;;;;;;;6.70;1.73;;;14.20;92.80;;;;;;5013617;28;20589;-67
2021/10/11 12:38:39;;;;;;;7.88;1.70;;;14.20;92.50;;;;;;5013237;28;20490;-67
2021/10/11 12:41:12;;;;;;;5.80;1.77;;;14.20;92.70;;;;;;5013199;28;20041;-67